Time;durP1;ratioP1;P1;durP2;ratioP2;P2;SDS_P1;SDS_P2;PMS_P1;PMS_P2;Temp;Humidity;BMP_temperature;BMP_pressure;BME280_temperature;BME280_humidity;BME280_pressure;Samples;Min_cycle;Max_cycle;Signal;HPM_P1;HPM_P2
2024/01/06 00:02:49;;;;;;;4.03;1.70;;;;;;;7.20;76.74;98910.63;10321822;28;20508;-62
2024/01/06 00:07:51;;;;;;;3.88;1.73;;;;;;;7.19;76.49;98919.53;10330312;28;20133;-63
2024/01/06 00:12:55;;;;;;;3.42;1.98;;;;;;;7.06;77.21;98914.50;10351867;28;20637;-63
2024/01/06 00:17:57;;;;;;;3.00;2.08;;;;;;;7.13;77.69;98922.72;10320582;28;20050;-61
2024/01/06 00:22:59;;;;;;;3.97;1.95;;;;;;;7.13;77.32;98930.66;10323233;28;20679;-64
2024/01/06 00:28:02;;;;;;;4.43;2.00;;;;;;;7.08;77.57;98925.75;10340746;28;20582;-63
2024/01/06 00:33:05;;;;;;;4.57;1.92;;;;;;;7.00;77.39;98921.16;10320040;28;20077;-62
2024/01/06 00:38:06;;;;;;;4.22;2.10;;;;;;;7.02;77.77;98931.59;10318983;28;20204;-63
2024/01/06 00:43:08;;;;;;;4.18;1.77;;;;;;;6.93;77.89;98935.03;10320436;28;20057;-63
2024/01/06 00:48:09;;;;;;;4.45;2.38;;;;;;;6.87;78.28;98933.75;10322113;28;20101;-60
2024/01/06 00:53:12;;;;;;;3.40;1.88;;;;;;;6.91;78.39;98940.47;10319360;28;20211;-63
2024/01/06 00:58:13;;;;;;;8.20;2.03;;;;;;;6.83;78.29;98938.47;10321018;28;20054;-64
2024/01/06 01:03:15;;;;;;;3.80;1.58;;;;;;;6.84;78.73;98952.53;10319039;28;20101;-63
2024/01/06 01:08:16;;;;;;;3.33;1.90;;;;;;;6.89;79.01;98955.59;10333611;28;20053;-60
2024/01/06 01:13:18;;;;;;;4.60;2.58;;;;;;;6.85;79.03;98962.16;10315167;28;20120;-62
2024/01/06 01:18:19;;;;;;;4.50;1.90;;;;;;;6.77;79.59;98951.38;10347341;28;20071;-64
2024/01/06 01:23:21;;;;;;;6.88;2.28;;;;;;;6.90;79.12;98962.59;10340381;28;20061;-62
2024/01/06 01:28:22;;;;;;;4.18;1.90;;;;;;;6.91;78.66;98972.22;10322937;28;20054;-65
2024/01/06 01:33:25;;;;;;;4.38;2.03;;;;;;;6.92;78.90;98965.97;10324910;28;20045;-63
2024/01/06 01:38:26;;;;;;;4.65;2.17;;;;;;;7.02;78.60;98977.41;10348606;28;21042;-63
2024/01/06 01:43:28;;;;;;;6.15;2.10;;;;;;;6.99;78.32;98982.13;10328353;28;20064;-63
2024/01/06 01:48:30;;;;;;;3.92;2.08;;;;;;;6.86;78.84;98987.63;10325458;28;20057;-65
2024/01/06 01:53:32;;;;;;;4.47;2.05;;;;;;;6.95;78.95;98988.66;10324853;28;20132;-65
2024/01/06 01:58:34;;;;;;;3.28;2.38;;;;;;;6.98;79.24;98999.81;10346646;28;20455;-65
2024/01/06 02:03:35;;;;;;;5.75;1.90;;;;;;;6.96;79.11;99004.38;10317838;28;20131;-63
2024/01/06 02:08:37;;;;;;;6.18;2.20;;;;;;;6.91;78.96;98988.06;10353796;28;20057;-63
2024/01/06 02:13:38;;;;;;;3.13;1.90;;;;;;;6.95;78.96;98992.16;10326123;28;20057;-64
2024/01/06 02:18:40;;;;;;;5.53;1.80;;;;;;;6.98;78.92;98997.19;10324539;28;20058;-62
2024/01/06 02:23:42;;;;;;;4.10;2.17;;;;;;;7.06;79.65;99005.28;10322826;28;20633;-65
2024/01/06 02:28:47;;;;;;;2.90;1.52;;;;;;;7.14;78.99;99001.13;10318424;28;20200;-62
2024/01/06 02:33:51;;;;;;;4.95;1.60;;;;;;;7.07;79.07;98969.91;10320651;28;20152;-65
2024/01/06 02:38:53;;;;;;;5.18;2.17;;;;;;;7.30;78.06;98996.19;10326780;28;20691;-64
2024/01/06 02:43:56;;;;;;;6.15;1.90;;;;;;;7.35;78.78;99009.84;10323479;28;20135;-64
2024/01/06 02:48:57;;;;;;;4.07;1.70;;;;;;;7.39;77.47;99021.03;10319874;28;20049;-63
2024/01/06 02:53:59;;;;;;;3.17;1.40;;;;;;;7.29;77.38;99028.09;10325309;28;20050;-63
2024/01/06 02:59:00;;;;;;;2.75;1.60;;;;;;;7.26;77.60;99037.13;10330227;28;20068;-64
2024/01/06 03:04:02;;;;;;;6.75;1.75;;;;;;;7.32;77.17;99031.31;10323213;28;20070;-63
2024/01/06 03:09:07;;;;;;;3.83;1.77;;;;;;;7.29;77.14;99020.16;10349302;28;20114;-64
2024/01/06 03:14:09;;;;;;;3.60;1.60;;;;;;;7.36;76.97;99024.78;10322057;28;20054;-63
2024/01/06 03:19:10;;;;;;;3.72;1.50;;;;;;;7.36;77.23;99032.72;10326018;28;20124;-63
2024/01/06 03:24:12;;;;;;;4.97;2.00;;;;;;;7.40;76.53;99031.50;10327386;28;20136;-64
2024/01/06 03:29:14;;;;;;;3.00;1.55;;;;;;;7.41;77.03;99030.50;10309589;28;20409;-63
2024/01/06 03:34:15;;;;;;;5.43;2.35;;;;;;;7.44;76.78;99029.41;10324855;28;20050;-63
2024/01/06 03:39:17;;;;;;;3.05;1.75;;;;;;;7.41;76.97;99029.66;10320507;28;20049;-64
2024/01/06 03:44:18;;;;;;;4.75;1.80;;;;;;;7.45;77.28;99020.50;10321642;28;20137;-65
2024/01/06 03:49:20;;;;;;;4.90;2.25;;;;;;;7.40;77.77;99009.47;10319621;28;20046;-63
2024/01/06 03:54:24;;;;;;;4.68;2.22;;;;;;;7.54;78.21;99034.75;10319554;28;20050;-63
2024/01/06 03:59:25;;;;;;;3.72;1.77;;;;;;;7.57;77.61;99045.06;10323959;28;20053;-64
2024/01/06 04:04:26;;;;;;;4.50;2.40;;;;;;;7.60;77.90;99058.06;10316054;28;20052;-63
2024/01/06 04:09:28;;;;;;;4.47;2.05;;;;;;;7.44;77.39;99030.22;10363077;28;20057;-63
2024/01/06 04:14:29;;;;;;;4.20;2.50;;;;;;;7.65;77.05;99063.78;10322158;28;20045;-64
2024/01/06 04:19:31;;;;;;;5.18;2.00;;;;;;;7.59;77.07;99059.84;10320123;28;20140;-63
2024/01/06 04:24:36;;;;;;;3.00;1.70;;;;;;;7.60;77.23;99055.41;10316292;28;20060;-63
2024/01/06 04:29:39;;;;;;;3.80;2.00;;;;;;;7.59;77.30;99064.31;10349222;28;20046;-64
2024/01/06 04:34:41;;;;;;;3.25;2.10;;;;;;;7.62;76.37;99066.69;10320231;28;20075;-62
2024/01/06 04:39:43;;;;;;;4.88;2.15;;;;;;;7.66;76.52;99070.75;10321554;28;20066;-65
2024/01/06 04:44:44;;;;;;;3.78;1.85;;;;;;;7.60;76.09;99068.66;10345339;28;20058;-63
2024/01/06 04:49:46;;;;;;;2.70;1.80;;;;;;;7.51;76.39;99066.81;10320019;28;20055;-63
2024/01/06 04:54:47;;;;;;;2.83;1.48;;;;;;;7.44;77.01;99050.59;10318961;28;20065;-65
2024/01/06 04:59:51;;;;;;;3.93;1.87;;;;;;;7.38;76.96;99059.88;10315682;28;21337;-64
2024/01/06 05:04:52;;;;;;;4.85;2.20;;;;;;;7.22;76.97;99035.72;10323186;28;20056;-64
2024/01/06 05:09:54;;;;;;;3.58;2.33;;;;;;;7.23;77.51;99047.97;10324781;28;20042;-64
2024/01/06 05:14:56;;;;;;;2.88;1.40;;;;;;;7.31;77.97;99056.13;10325756;28;20058;-64
2024/01/06 05:19:58;;;;;;;3.17;1.77;;;;;;;7.31;78.59;99050.81;10323777;28;20496;-64
2024/01/06 05:24:59;;;;;;;4.10;1.80;;;;;;;7.25;78.35;99072.50;10325974;28;20180;-64
2024/01/06 05:30:02;;;;;;;5.18;1.95;;;;;;;7.28;79.02;99074.91;10325412;28;20052;-65
2024/01/06 05:35:04;;;;;;;4.30;2.30;;;;;;;7.28;78.35;99074.91;10326413;28;20061;-64
2024/01/06 05:40:09;;;;;;;2.90;1.88;;;;;;;7.26;78.74;99077.66;10321196;28;20133;-65
2024/01/06 05:45:13;;;;;;;4.65;2.05;;;;;;;7.30;78.68;99077.44;10349946;28;20495;-64
2024/01/06 05:50:15;;;;;;;3.63;1.70;;;;;;;7.38;79.20;99083.72;10341993;28;20136;-65
2024/01/06 05:55:17;;;;;;;6.03;2.03;;;;;;;7.46;78.63;99085.72;10348017;28;20714;-63
2024/01/06 06:00:19;;;;;;;5.68;2.22;;;;;;;7.46;78.39;99098.13;10326688;28;20065;-63
2024/01/06 06:05:23;;;;;;;6.53;2.72;;;;;;;7.42;78.61;99095.72;10323946;28;20049;-63
2024/01/06 06:10:30;;;;;;;3.03;2.08;;;;;;;7.29;78.54;99095.09;10355703;28;20479;-64
2024/01/06 06:15:31;;;;;;;3.58;1.90;;;;;;;7.29;79.55;99113.63;10323244;28;20038;-64
2024/01/06 06:20:33;;;;;;;4.25;2.05;;;;;;;7.22;79.82;99115.13;10327126;28;20077;-63
2024/01/06 06:25:38;;;;;;;3.95;2.05;;;;;;;7.25;79.86;99128.94;10324887;28;20124;-64
2024/01/06 06:30:39;;;;;;;2.83;1.90;;;;;;;7.24;79.78;99115.84;10327365;28;20132;-63
2024/01/06 06:35:41;;;;;;;5.47;2.58;;;;;;;7.24;79.38;99126.44;10321416;28;20054;-65
2024/01/06 06:40:45;;;;;;;6.57;2.50;;;;;;;7.14;80.25;99129.00;10324306;28;20083;-63
2024/01/06 06:45:46;;;;;;;3.95;2.20;;;;;;;7.25;80.24;99149.25;10344882;28;20057;-64
2024/01/06 06:50:48;;;;;;;4.18;2.00;;;;;;;7.15;80.42;99135.16;10325125;28;20626;-63
2024/01/06 06:55:49;;;;;;;9.00;2.78;;;;;;;7.16;80.45;99147.41;10327826;28;20135;-63
2024/01/06 07:00:51;;;;;;;4.93;2.08;;;;;;;7.07;80.80;99163.09;10324787;28;21063;-65
2024/01/06 07:05:53;;;;;;;3.05;2.17;;;;;;;7.12;80.78;99183.03;10303584;28;22956;-65
2024/01/06 07:10:55;;;;;;;4.32;2.28;;;;;;;6.93;81.24;99167.84;10321074;28;20145;-63
2024/01/06 07:15:56;;;;;;;3.65;2.08;;;;;;;7.05;81.24;99183.53;10321799;28;20112;-63
2024/01/06 07:21:15;;;;;;;5.03;2.67;;;;;;;7.07;81.50;99201.91;10336428;28;20232;-65
2024/01/06 07:26:17;;;;;;;4.85;2.47;;;;;;;7.10;81.34;99198.19;10325795;28;20049;-63
2024/01/06 07:31:19;;;;;;;3.15;2.35;;;;;;;7.11;81.71;99200.72;10361885;28;20056;-65
2024/01/06 07:36:22;;;;;;;4.60;2.63;;;;;;;7.22;82.36;99215.69;10323020;28;20048;-68
2024/01/06 07:41:24;;;;;;;5.13;2.40;;;;;;;7.25;82.29;99221.59;10317384;28;20164;-67
2024/01/06 07:46:27;;;;;;;5.07;2.40;;;;;;;7.23;81.35;99217.38;10324309;28;20045;-64
2024/01/06 07:51:28;;;;;;;3.67;2.60;;;;;;;7.27;81.44;99221.47;10325177;28;20164;-64
2024/01/06 07:56:30;;;;;;;4.03;1.98;;;;;;;7.15;81.39;99235.72;10337532;28;20053;-64
2024/01/06 08:01:31;;;;;;;4.25;2.33;;;;;;;7.03;82.02;99217.22;10321404;28;20050;-67
2024/01/06 08:06:36;;;;;;;6.85;2.38;;;;;;;7.08;81.80;99236.19;10323087;28;20061;-65
2024/01/06 08:11:38;;;;;;;5.00;2.88;;;;;;;6.96;82.59;99216.03;10319778;28;20060;-64
2024/01/06 08:16:41;;;;;;;4.07;2.10;;;;;;;7.26;83.38;99264.78;10321730;28;20566;-63
2024/01/06 08:21:42;;;;;;;3.95;2.47;;;;;;;7.23;84.57;99265.03;10317590;28;20049;-63
2024/01/06 08:26:44;;;;;;;3.55;2.35;;;;;;;7.33;84.61;99270.41;10316634;28;21628;-66
2024/01/06 08:31:46;;;;;;;5.18;2.75;;;;;;;7.37;85.98;99277.97;10352760;28;20123;-63
2024/01/06 08:36:48;;;;;;;4.72;2.45;;;;;;;7.34;84.68;99267.66;10320963;28;20081;-64
2024/01/06 08:41:49;;;;;;;4.47;2.72;;;;;;;7.36;85.86;99286.06;10334788;28;20236;-66
2024/01/06 08:46:51;;;;;;;3.65;2.78;;;;;;;7.40;84.59;99293.63;10321098;28;20561;-65
2024/01/06 08:51:52;;;;;;;3.92;2.53;;;;;;;7.39;84.63;99302.50;10320856;28;20659;-64
2024/01/06 08:56:54;;;;;;;6.50;3.15;;;;;;;7.46;84.83;99307.28;10316974;28;20200;-65
2024/01/06 09:01:56;;;;;;;5.03;2.60;;;;;;;7.48;84.95;99310.69;10318766;28;20053;-65
2024/01/06 09:07:01;;;;;;;;;;;;;;;7.50;84.71;99311.38;10320459;28;20045;-65
2024/01/06 09:12:26;;;;;;;4.10;2.83;;;;;;;7.48;85.13;99313.31;10319065;28;19929;-64
2024/01/06 09:17:27;;;;;;;6.40;3.42;;;;;;;7.32;86.00;99317.22;10322377;28;20054;-63
2024/01/06 09:22:29;;;;;;;4.78;3.35;;;;;;;7.23;86.34;99317.97;10331369;28;20727;-65
2024/01/06 09:27:31;;;;;;;4.32;2.63;;;;;;;7.24;86.57;99330.25;10324681;28;20132;-64
2024/01/06 09:32:32;;;;;;;6.47;2.92;;;;;;;7.27;87.03;99340.59;10348024;28;20057;-65
2024/01/06 09:37:34;;;;;;;7.05;3.05;;;;;;;7.30;86.79;99347.44;10322632;28;20748;-65
2024/01/06 09:42:36;;;;;;;4.82;2.92;;;;;;;7.24;86.92;99346.13;10318494;28;20060;-64
2024/01/06 09:47:40;;;;;;;6.88;3.58;;;;;;;7.32;87.47;99345.50;10322427;28;21850;-65
2024/01/06 09:52:43;;;;;;;6.15;3.88;;;;;;;7.39;87.13;99339.56;10328417;28;20080;-65
2024/01/06 09:57:45;;;;;;;5.65;3.33;;;;;;;7.42;86.68;99349.91;10320932;28;20077;-65
2024/01/06 10:02:51;;;;;;;4.13;3.20;;;;;;;7.31;87.34;99334.09;10322628;28;20057;-63
2024/01/06 10:07:52;;;;;;;6.50;3.20;;;;;;;7.38;86.90;99361.72;10335029;28;20112;-65
2024/01/06 10:12:55;;;;;;;6.43;4.63;;;;;;;7.36;87.13;99366.31;10327544;28;20188;-65
2024/01/06 10:17:58;;;;;;;4.97;3.55;;;;;;;7.27;88.26;99367.06;10335149;28;20046;-64
2024/01/06 10:23:05;;;;;;;6.00;4.10;;;;;;;7.27;88.30;99361.75;10321273;28;20042;-65
2024/01/06 10:28:07;;;;;;;6.72;3.33;;;;;;;7.18;88.07;99344.81;10321287;28;20087;-65
2024/01/06 10:33:10;;;;;;;4.50;3.47;;;;;;;7.37;88.40;99368.00;10320147;28;20080;-65
2024/01/06 10:38:11;;;;;;;4.75;3.90;;;;;;;7.19;88.16;99343.84;10324801;28;20109;-64
2024/01/06 10:43:13;;;;;;;7.30;5.25;;;;;;;7.37;88.52;99368.00;10323628;28;20058;-63
2024/01/06 10:48:15;;;;;;;7.97;5.45;;;;;;;7.53;88.94;99379.97;10327157;28;20498;-65
2024/01/06 10:53:18;;;;;;;10.23;7.93;;;;;;;7.56;88.27;99369.97;10326889;28;20050;-64
2024/01/06 10:58:22;;;;;;;5.40;3.97;;;;;;;7.58;87.75;99368.06;10321447;28;20051;-67
2024/01/06 11:03:24;;;;;;;7.95;5.80;;;;;;;7.62;88.43;99355.38;10355043;28;20054;-64
2024/01/06 11:08:28;;;;;;;8.32;7.63;;;;;;;7.70;87.74;99360.91;10325873;28;20053;-64
2024/01/06 11:13:29;;;;;;;5.25;4.00;;;;;;;7.83;87.96;99363.34;10324805;28;20143;-64
2024/01/06 11:18:38;;;;;;;5.70;3.92;;;;;;;7.87;86.65;99358.66;10321229;28;20065;-67
2024/01/06 11:23:40;;;;;;;6.03;4.28;;;;;;;7.93;86.89;99353.69;10349116;28;20182;-65
2024/01/06 11:28:46;;;;;;;4.80;3.97;;;;;;;8.10;86.18;99354.91;10322379;28;20054;-63
2024/01/06 11:33:51;;;;;;;6.10;5.40;;;;;;;8.22;86.17;99344.25;10324312;28;20054;-65
2024/01/06 11:38:53;;;;;;;;;;;;;;;8.32;85.01;99350.44;10322593;28;20052;-65
2024/01/06 11:43:55;;;;;;;8.98;8.13;;;;;;;8.29;84.49;99354.19;10327852;28;19959;-64
2024/01/06 11:48:57;;;;;;;10.18;6.22;;;;;;;8.39;84.86;99358.69;10340425;28;20080;-64
2024/01/06 11:53:59;;;;;;;6.88;5.15;;;;;;;8.51;83.83;99338.28;10323893;28;20061;-66
2024/01/06 11:59:02;;;;;;;5.75;5.07;;;;;;;8.75;84.16;99333.50;10320997;28;20053;-65
2024/01/06 12:04:05;;;;;;;5.88;4.35;;;;;;;8.93;83.58;99333.69;10325579;28;20060;-65
2024/01/06 12:09:10;;;;;;;6.63;5.00;;;;;;;8.95;82.28;99333.56;10324109;28;20076;-65
2024/01/06 12:14:36;;;;;;;5.75;4.30;;;;;;;8.89;82.46;99339.38;10316586;28;20673;-64
2024/01/06 12:19:46;;;;;;;5.55;4.93;;;;;;;8.88;83.69;99337.72;10320121;28;20570;-64
2024/01/06 12:24:50;;;;;;;5.18;3.85;;;;;;;8.85;83.00;99329.03;10322374;28;20062;-66
2024/01/06 12:29:54;;;;;;;6.65;4.22;;;;;;;9.03;82.81;99341.66;10327021;28;20050;-65
2024/01/06 12:34:56;;;;;;;7.72;5.72;;;;;;;9.09;83.18;99341.13;10327990;28;20705;-63
2024/01/06 12:39:57;;;;;;;6.50;4.53;;;;;;;9.04;81.94;99332.75;10323739;28;20046;-64
2024/01/06 12:44:59;;;;;;;4.93;4.38;;;;;;;9.07;81.12;99339.56;10325562;28;20188;-65
2024/01/06 12:50:00;;;;;;;4.82;4.20;;;;;;;9.09;82.23;99341.13;10342547;28;20456;-65
2024/01/06 12:55:07;;;;;;;4.60;3.87;;;;;;;8.96;81.61;99343.19;10345666;28;20179;-65
2024/01/06 13:00:10;;;;;;;;;;;;;;;9.05;82.29;99347.66;10342760;28;20065;-64
2024/01/06 13:05:12;;;;;;;4.53;4.10;;;;;;;9.09;82.14;99350.91;10341696;28;19935;-65
2024/01/06 13:10:14;;;;;;;4.18;3.78;;;;;;;9.16;81.18;99358.19;10319814;28;20205;-63
2024/01/06 13:15:16;;;;;;;5.25;3.60;;;;;;;9.23;81.18;99358.47;10320956;28;20057;-65
2024/01/06 13:20:19;;;;;;;4.32;3.72;;;;;;;9.30;81.66;99359.59;10320162;28;20119;-65
2024/01/06 13:25:22;;;;;;;4.63;3.80;;;;;;;8.98;82.26;99360.66;10340174;28;20515;-65
2024/01/06 13:30:25;;;;;;;4.50;4.10;;;;;;;9.14;82.65;99362.81;10329684;28;20065;-65
2024/01/06 13:35:28;;;;;;;4.68;4.20;;;;;;;9.25;81.05;99372.47;10332271;28;20800;-66
2024/01/06 13:40:30;;;;;;;4.32;3.92;;;;;;;9.27;81.72;99375.00;10325840;28;20053;-65
2024/01/06 13:45:31;;;;;;;6.95;4.78;;;;;;;9.30;80.11;99383.50;10325311;28;20057;-65
2024/01/06 13:50:33;;;;;;;3.47;3.17;;;;;;;9.18;80.51;99381.94;10335961;28;20046;-64
2024/01/06 13:55:34;;;;;;;4.05;3.65;;;;;;;9.17;78.67;99385.56;10351125;28;20046;-65
2024/01/06 14:00:36;;;;;;;3.08;2.70;;;;;;;9.16;79.40;99387.41;10345763;28;20080;-65
2024/01/06 14:05:39;;;;;;;3.13;2.83;;;;;;;9.17;78.30;99391.75;10347235;28;20072;-65
2024/01/06 14:10:41;;;;;;;4.07;2.95;;;;;;;9.23;79.31;99400.13;10333202;28;20045;-65
2024/01/06 14:15:43;;;;;;;4.03;3.63;;;;;;;9.16;79.08;99397.19;10340205;28;20846;-65
2024/01/06 14:20:45;;;;;;;48.08;42.85;;;;;;;9.11;79.11;99396.75;10322440;28;20132;-65
2024/01/06 14:25:46;;;;;;;8.98;7.78;;;;;;;9.12;79.54;99387.81;10342739;28;20068;-66
2024/01/06 14:30:48;;;;;;;6.60;4.18;;;;;;;9.21;79.52;99397.63;10325665;28;20063;-65
2024/01/06 14:35:53;;;;;;;5.47;3.20;;;;;;;8.76;79.70;99352.91;10326295;28;20121;-65
2024/01/06 14:40:55;;;;;;;4.15;3.75;;;;;;;9.10;79.54;99414.50;10335783;28;20060;-64
2024/01/06 14:45:56;;;;;;;4.63;4.20;;;;;;;9.13;79.43;99426.66;10345947;28;20053;-63
2024/01/06 14:50:58;;;;;;;5.68;4.18;;;;;;;8.88;78.01;99433.25;10325393;28;20918;-64
2024/01/06 14:56:00;;;;;;;4.53;3.85;;;;;;;8.85;74.87;99440.50;10329007;28;20145;-65
2024/01/06 15:01:02;;;;;;;7.18;4.13;;;;;;;8.95;75.33;99440.56;10326079;28;20089;-66
2024/01/06 15:06:04;;;;;;;4.35;3.42;;;;;;;8.90;74.41;99433.97;10347065;28;20058;-64
2024/01/06 15:11:07;;;;;;;6.22;4.07;;;;;;;8.89;74.44;99450.84;10334427;28;20186;-63
2024/01/06 15:16:09;;;;;;;5.00;4.20;;;;;;;8.93;73.97;99446.97;10326041;28;21367;-65
2024/01/06 15:21:12;;;;;;;3.65;3.28;;;;;;;8.85;74.63;99439.66;10325425;28;20140;-65
2024/01/06 15:26:21;;;;;;;4.13;3.45;;;;;;;8.93;74.54;99457.59;10318066;28;20079;-64
2024/01/06 15:31:23;;;;;;;5.10;4.03;;;;;;;8.92;74.25;99469.19;10325304;28;20046;-63
2024/01/06 15:36:26;;;;;;;4.70;3.88;;;;;;;8.96;74.73;99462.63;10326841;28;20080;-66
2024/01/06 15:41:27;;;;;;;4.63;3.65;;;;;;;8.91;73.56;99465.69;10324514;28;20582;-67
2024/01/06 15:46:29;;;;;;;4.22;3.45;;;;;;;8.90;73.43;99463.16;10322161;28;20069;-65
2024/01/06 15:51:31;;;;;;;4.00;3.13;;;;;;;8.85;72.72;99467.03;10322733;28;22011;-64
2024/01/06 15:56:32;;;;;;;4.22;3.15;;;;;;;8.88;72.52;99481.03;10352567;28;20072;-64
2024/01/06 16:01:34;;;;;;;4.10;3.03;;;;;;;8.88;72.51;99481.88;10320182;28;20141;-65
2024/01/06 16:06:36;;;;;;;3.55;3.10;;;;;;;8.80;72.34;99490.50;10355945;28;20140;-63
2024/01/06 16:11:38;;;;;;;3.25;2.92;;;;;;;8.73;71.63;99493.81;10352425;28;20049;-65
2024/01/06 16:16:40;;;;;;;4.68;3.50;;;;;;;8.82;71.24;99503.63;10327035;28;20280;-65
2024/01/06 16:21:41;;;;;;;3.85;3.15;;;;;;;8.73;71.53;99505.25;10318519;28;20072;-65
2024/01/06 16:26:44;;;;;;;3.97;3.35;;;;;;;8.82;71.62;99516.91;10338368;28;20049;-64
2024/01/06 16:31:45;;;;;;;3.72;3.30;;;;;;;8.78;71.21;99507.50;10347364;28;21062;-64
2024/01/06 16:36:49;;;;;;;4.18;3.78;;;;;;;8.62;71.66;99516.78;10333352;28;20041;-64
2024/01/06 16:41:51;;;;;;;4.07;3.72;;;;;;;8.73;71.50;99525.63;10312326;28;20137;-64
2024/01/06 16:46:57;;;;;;;5.38;4.88;;;;;;;8.58;71.44;99514.50;10325867;28;20172;-65
2024/01/06 16:51:58;;;;;;;8.73;7.10;;;;;;;8.71;70.72;99541.69;10324474;28;20107;-65
2024/01/06 16:57:02;;;;;;;11.73;9.98;;;;;;;8.76;70.84;99534.16;10321991;28;20049;-66
2024/01/06 17:02:03;;;;;;;5.30;4.70;;;;;;;8.73;71.00;99541.56;10333231;28;20182;-66
2024/01/06 17:07:06;;;;;;;4.85;4.25;;;;;;;8.74;70.39;99548.56;10335326;28;20057;-65
2024/01/06 17:12:10;;;;;;;5.03;4.30;;;;;;;8.75;71.08;99551.09;10334242;28;20068;-66
2024/01/06 17:17:12;;;;;;;4.45;4.05;;;;;;;8.53;71.63;99520.19;10375884;28;20050;-65
2024/01/06 17:22:14;;;;;;;5.05;3.83;;;;;;;8.59;70.71;99540.06;10337801;28;20186;-66
2024/01/06 17:27:15;;;;;;;6.47;4.85;;;;;;;8.71;70.44;99554.97;10326479;28;20065;-65
2024/01/06 17:32:17;;;;;;;5.85;4.85;;;;;;;8.77;71.25;99566.88;10328226;28;20065;-67
2024/01/06 17:37:19;;;;;;;4.72;4.10;;;;;;;8.79;71.35;99568.41;10309672;28;20398;-65
2024/01/06 17:42:24;;;;;;;6.15;4.97;;;;;;;8.74;70.79;99564.47;10326430;28;20124;-66
2024/01/06 17:47:25;;;;;;;5.00;4.47;;;;;;;8.67;71.91;99572.09;10321109;28;20910;-65
2024/01/06 17:52:27;;;;;;;5.78;4.47;;;;;;;8.69;72.54;99575.44;10337769;28;20696;-66
2024/01/06 17:57:33;;;;;;;4.72;4.03;;;;;;;8.73;71.15;99582.19;10334340;28;20103;-67
2024/01/06 18:02:35;;;;;;;6.93;5.80;;;;;;;8.69;71.62;99585.25;10322337;28;20092;-64
2024/01/06 18:07:41;;;;;;;6.55;4.60;;;;;;;8.72;71.43;99591.16;10305400;28;20515;-67
2024/01/06 18:12:43;;;;;;;5.35;4.55;;;;;;;8.74;71.35;99597.16;10347709;28;20064;-67
2024/01/06 18:17:45;;;;;;;5.97;5.18;;;;;;;8.74;70.55;99597.16;10342570;28;20065;-65
2024/01/06 18:22:48;;;;;;;6.65;5.45;;;;;;;8.67;71.46;99595.97;10326796;28;20054;-66
2024/01/06 18:27:50;;;;;;;8.45;5.25;;;;;;;8.61;71.78;99607.94;10355132;28;20224;-66
2024/01/06 18:32:52;;;;;;;5.88;5.03;;;;;;;8.70;71.58;99605.50;10330845;28;20050;-66
2024/01/06 18:37:53;;;;;;;5.45;4.82;;;;;;;8.70;71.82;99616.13;10322796;28;20052;-68
2024/01/06 18:42:55;;;;;;;7.53;6.15;;;;;;;8.71;72.99;99610.69;10319058;28;20065;-67
2024/01/06 18:47:56;;;;;;;7.13;5.35;;;;;;;8.61;74.38;99601.78;10327284;28;20588;-66
2024/01/06 18:52:58;;;;;;;6.25;5.38;;;;;;;8.64;74.68;99617.47;10335980;28;20080;-65
2024/01/06 18:58:00;;;;;;;7.20;5.07;;;;;;;8.58;74.71;99617.97;10326907;28;20058;-65
2024/01/06 19:03:01;;;;;;;6.20;5.05;;;;;;;8.61;75.26;99617.72;10324326;28;20053;-67
2024/01/06 19:08:03;;;;;;;6.45;5.47;;;;;;;8.49;75.81;99593.03;10344066;28;20059;-65
2024/01/06 19:13:08;;;;;;;6.50;5.68;;;;;;;8.55;74.76;99618.22;10336971;28;20083;-66
2024/01/06 19:18:09;;;;;;;7.35;6.43;;;;;;;8.58;75.40;99625.94;10344651;28;20060;-66
2024/01/06 19:23:12;;;;;;;7.90;6.85;;;;;;;8.61;75.72;99625.66;10324111;28;20129;-66
2024/01/06 19:28:18;;;;;;;7.60;6.22;;;;;;;8.51;74.78;99611.47;10347215;28;20051;-65
2024/01/06 19:33:19;;;;;;;6.55;5.53;;;;;;;8.47;74.34;99622.34;10318327;28;20053;-66
2024/01/06 19:38:21;;;;;;;7.22;6.10;;;;;;;8.53;74.44;99630.75;10345079;28;20049;-66
2024/01/06 19:43:22;;;;;;;8.43;7.07;;;;;;;8.58;75.03;99631.22;10327680;28;20046;-66
2024/01/06 19:48:23;;;;;;;11.35;9.52;;;;;;;8.46;74.14;99635.72;10321969;28;20046;-66
2024/01/06 19:53:25;;;;;;;12.32;10.02;;;;;;;8.44;75.23;99638.50;10339639;28;20043;-66
2024/01/06 19:58:27;;;;;;;10.13;9.10;;;;;;;8.43;75.13;99633.28;10339406;28;20066;-65
2024/01/06 20:03:28;;;;;;;7.47;6.00;;;;;;;8.48;74.38;99644.38;10334598;28;20053;-66
2024/01/06 20:08:31;;;;;;;6.55;5.90;;;;;;;8.37;74.62;99626.66;10352328;28;20569;-66
2024/01/06 20:13:34;;;;;;;7.70;6.50;;;;;;;8.35;75.27;99644.53;10326082;28;20108;-65
2024/01/06 20:18:36;;;;;;;7.38;6.60;;;;;;;8.14;74.87;99613.47;10322632;28;20614;-66
2024/01/06 20:23:38;;;;;;;6.93;6.22;;;;;;;8.41;76.29;99638.72;10338644;28;20054;-66
2024/01/06 20:28:41;;;;;;;8.70;6.85;;;;;;;8.35;75.49;99633.91;10326616;28;20054;-66
2024/01/06 20:33:44;;;;;;;9.15;7.90;;;;;;;8.43;75.07;99647.38;10361386;28;20116;-71
2024/01/06 20:38:51;;;;;;;7.27;6.57;;;;;;;8.45;75.73;99645.50;10338635;28;20050;-72
2024/01/06 20:43:53;;;;;;;6.78;5.88;;;;;;;8.41;75.69;99644.03;10339079;28;20149;-65
2024/01/06 20:48:54;;;;;;;8.63;6.35;;;;;;;8.47;75.26;99653.34;10322368;28;20047;-67
2024/01/06 20:53:56;;;;;;;7.88;7.07;;;;;;;8.06;76.35;99655.66;10315303;28;20049;-65
2024/01/06 20:58:57;;;;;;;8.23;6.03;;;;;;;8.24;76.16;99652.50;10348031;28;20148;-66
2024/01/06 21:03:59;;;;;;;7.15;6.13;;;;;;;8.34;76.64;99653.44;10324333;28;20127;-67
2024/01/06 21:09:01;;;;;;;10.43;6.88;;;;;;;8.11;76.86;99647.34;10343789;28;20144;-67
2024/01/06 21:14:02;;;;;;;9.98;7.18;;;;;;;7.95;77.83;99647.72;10309698;28;20141;-65
2024/01/06 21:19:04;;;;;;;7.00;5.78;;;;;;;8.18;77.49;99659.16;10319000;28;20069;-67
2024/01/06 21:24:06;;;;;;;6.38;5.55;;;;;;;8.30;76.33;99644.03;10310373;28;20262;-66
2024/01/06 21:29:08;;;;;;;7.13;5.95;;;;;;;8.24;76.23;99649.84;10301885;28;20054;-66
2024/01/06 21:34:09;;;;;;;6.38;4.82;;;;;;;8.21;76.03;99647.44;10315207;28;20054;-66
2024/01/06 21:39:11;;;;;;;6.05;5.00;;;;;;;8.27;76.38;99657.53;10346831;28;20533;-67
2024/01/06 21:44:13;;;;;;;5.88;4.18;;;;;;;8.24;76.35;99657.78;10333750;28;20069;-67
2024/01/06 21:49:17;;;;;;;3.50;3.17;;;;;;;8.20;76.56;99666.97;10346746;28;20045;-66
2024/01/06 21:54:19;;;;;;;4.70;3.33;;;;;;;7.99;77.00;99666.84;10328676;28;20663;-66
2024/01/06 21:59:20;;;;;;;2.63;2.42;;;;;;;7.93;77.55;99670.84;10325751;28;20072;-65
2024/01/06 22:04:23;;;;;;;2.53;1.73;;;;;;;7.96;76.16;99675.91;10328106;28;20077;-65
2024/01/06 22:09:24;;;;;;;2.42;1.33;;;;;;;7.99;76.09;99685.41;10357317;28;20106;-67
2024/01/06 22:14:26;;;;;;;1.70;1.30;;;;;;;7.67;77.60;99699.38;10352010;28;20141;-66
2024/01/06 22:19:27;;;;;;;2.70;1.00;;;;;;;7.74;77.74;99697.94;10321205;28;20069;-66
2024/01/06 22:24:30;;;;;;;1.20;0.90;;;;;;;7.71;77.94;99698.19;10326691;28;20163;-67
2024/01/06 22:29:32;;;;;;;3.03;0.98;;;;;;;7.65;77.85;99696.00;10337770;28;20057;-66
2024/01/06 22:34:35;;;;;;;2.55;1.27;;;;;;;7.50;78.53;99700.66;10320745;28;20296;-66
2024/01/06 22:39:40;;;;;;;1.70;1.23;;;;;;;7.53;78.58;99700.44;10319934;28;20081;-65
2024/01/06 22:44:42;;;;;;;2.55;1.92;;;;;;;7.54;77.94;99696.84;10316676;28;20054;-66
2024/01/06 22:49:44;;;;;;;3.63;2.10;;;;;;;7.33;78.87;99694.84;10320902;28;20065;-67
2024/01/06 22:54:45;;;;;;;2.70;2.35;;;;;;;7.26;79.43;99710.34;10346638;28;20053;-65
2024/01/06 22:59:47;;;;;;;3.50;2.63;;;;;;;7.32;79.47;99695.81;10354645;28;20606;-66
2024/01/06 23:04:49;;;;;;;3.13;2.72;;;;;;;7.33;78.66;99697.50;10328622;28;20053;-66
2024/01/06 23:09:50;;;;;;;3.05;2.75;;;;;;;7.37;78.99;99695.47;10346865;28;20137;-67
2024/01/06 23:14:53;;;;;;;4.00;2.83;;;;;;;7.21;78.92;99707.22;10319075;28;20726;-66
2024/01/06 23:19:54;;;;;;;4.85;3.35;;;;;;;7.19;79.15;99716.22;10320737;28;20085;-65
2024/01/06 23:24:56;;;;;;;2.85;2.65;;;;;;;7.07;78.95;99705.59;10327326;28;20053;-66
2024/01/06 23:29:58;;;;;;;3.78;3.33;;;;;;;6.77;80.16;99718.44;10352924;28;20973;-66
2024/01/06 23:34:59;;;;;;;5.95;5.00;;;;;;;6.63;79.93;99715.00;10308946;28;20053;-66
2024/01/06 23:40:01;;;;;;;3.70;3.10;;;;;;;6.85;80.12;99724.88;10344119;28;20045;-66
2024/01/06 23:45:03;;;;;;;3.40;2.88;;;;;;;6.86;79.38;99721.28;10332457;28;20059;-66